Climatologie pour Saint-Brevin les Pins
Jour • Résumé pour mai 17, 2017 Système :  Métrique    Anglais   Mixte
« - 1 jour
+ 1 jour »
Jour Semaine Mois Année Personnalisé
  Maximum : Minimum : Moyenne :
Température sous abri : 21.1 °C 13.4 °C 16 °C
Point de rosée : 17.8 °C 12.7 °C 14.8 °C
Humidité : 98 % 75 % 93 %
Vitesse du vent : 16.1 km/h 0.0 km/h 3.1 km/h
Rafale : 27.4 km/h - -
Direction :- - West
Pression : 1022.2 hPa 1014.8 hPa -
Précipitations : 5.1 mm    
Historical Graphs
 
 
Tableau de données pour mai 17, 2017
Heure Tempé Pt rosée Pression Vent Vitesse Rafale Humidité Taux pluie (/hr) Soleil
00:00 15.7 °C 13.9 °C 1022.2 hPa Calm     89 % 0.0 mm 0 W/m2
00:05 15.7 °C 13.9 °C 1022.2 hPa Calm     89 % 0.0 mm 0 W/m2
00:15 15.4 °C 13.8 °C 1021.9 hPa Calm   1.6 km/h 90 % 0.0 mm 0 W/m2
00:20 15.4 °C 13.8 °C 1021.9 hPa Calm     90 % 0.0 mm 0 W/m2
00:25 15.3 °C 13.7 °C 1021.9 hPa Calm     90 % 0.0 mm 0 W/m2
00:30 15.3 °C 13.8 °C 1021.9 hPa Calm     91 % 0.0 mm 0 W/m2
00:35 15.4 °C 13.9 °C 1021.9 hPa Calm     91 % 0.0 mm 0 W/m2
00:40 15.2 °C 13.8 °C 1021.9 hPa Calm     91 % 0.0 mm 0 W/m2
00:45 15.1 °C 13.6 °C 1021.9 hPa Calm     91 % 0.0 mm 0 W/m2
00:50 14.9 °C 13.7 °C 1021.9 hPa Calm     92 % 0.0 mm 0 W/m2
00:55 14.9 °C 13.6 °C 1021.9 hPa Calm     92 % 0.0 mm 0 W/m2
01:00 14.9 °C 13.8 °C 1021.9 hPa Calm     93 % 0.0 mm 0 W/m2
01:05 14.9 °C 13.8 °C 1021.9 hPa Calm     93 % 0.0 mm 0 W/m2
01:10 14.9 °C 13.8 °C 1021.9 hPa Calm     93 % 0.0 mm 0 W/m2
01:15 14.8 °C 13.7 °C 1021.9 hPa Calm   1.6 km/h 93 % 0.0 mm 0 W/m2
01:20 14.8 °C 13.7 °C 1021.9 hPa Calm   1.6 km/h 93 % 0.0 mm 0 W/m2
01:25 14.8 °C 13.7 °C 1021.6 hPa Calm   1.6 km/h 93 % 0.0 mm 0 W/m2
01:30 14.8 °C 13.9 °C 1021.6 hPa Calm     94 % 0.0 mm 0 W/m2
01:35 14.9 °C 13.9 °C 1021.6 hPa Calm     94 % 0.0 mm 0 W/m2
01:40 14.9 °C 14.0 °C 1021.6 hPa Calm     94 % 0.0 mm 0 W/m2
01:45 14.9 °C 14.0 °C 1021.6 hPa Calm     94 % 0.0 mm 0 W/m2
01:50 14.9 °C 13.8 °C 1021.2 hPa Calm     93 % 0.0 mm 0 W/m2
01:55 14.9 °C 13.8 °C 1021.2 hPa Calm     93 % 0.0 mm 0 W/m2
02:00 14.9 °C 13.9 °C 1021.2 hPa Calm     94 % 0.0 mm 0 W/m2
02:05 14.8 °C 13.9 °C 1021.2 hPa Calm     94 % 0.0 mm 0 W/m2
02:10 14.8 °C 13.9 °C 1021.2 hPa Calm     94 % 0.0 mm 0 W/m2
02:15 14.8 °C 13.8 °C 1020.9 hPa Calm     94 % 0.0 mm 0 W/m2
02:20 14.8 °C 13.9 °C 1020.9 hPa Calm     94 % 0.0 mm 0 W/m2
02:25 14.9 °C 14.0 °C 1020.9 hPa Calm     94 % 0.0 mm 0 W/m2
02:30 15.1 °C 13.9 °C 1020.9 hPa Calm     93 % 0.0 mm 0 W/m2
02:35 14.9 °C 13.6 °C 1020.5 hPa Calm     92 % 0.0 mm 0 W/m2
02:40 14.7 °C 13.6 °C 1020.5 hPa Calm     93 % 0.0 mm 0 W/m2
02:45 14.6 °C 13.5 °C 1020.5 hPa Calm     93 % 0.0 mm 0 W/m2
02:50 14.4 °C 13.3 °C 1020.5 hPa Calm   1.6 km/h 93 % 0.0 mm 0 W/m2
02:55 14.1 °C 13.0 °C 1020.5 hPa Calm   1.6 km/h 93 % 0.0 mm 0 W/m2
03:00 14.1 °C 13.1 °C 1020.5 hPa Calm     94 % 0.0 mm 0 W/m2
03:05 14.1 °C 13.2 °C 1020.5 hPa Calm   1.6 km/h 94 % 0.0 mm 0 W/m2
03:10 14.2 °C 13.2 °C 1020.5 hPa Calm   1.6 km/h 94 % 0.0 mm 0 W/m2
03:15 14.1 °C 13.1 °C 1020.5 hPa Calm     94 % 0.0 mm 0 W/m2
03:20 14.1 °C 13.1 °C 1020.2 hPa Calm     94 % 0.0 mm 0 W/m2
03:25 14.2 °C 13.4 °C 1020.2 hPa Calm     95 % 0.0 mm 0 W/m2
03:30 14.3 °C 13.5 °C 1020.2 hPa Calm   1.6 km/h 95 % 0.0 mm 0 W/m2
03:35 14.3 °C 13.5 °C 1020.2 hPa Calm   1.6 km/h 95 % 0.0 mm 0 W/m2
03:40 14.2 °C 13.4 °C 1019.9 hPa Calm     95 % 0.0 mm 0 W/m2
03:45 14.2 °C 13.3 °C 1019.9 hPa Calm     94 % 0.0 mm 0 W/m2
03:50 14.3 °C 13.5 °C 1019.9 hPa Calm     95 % 0.0 mm 0 W/m2
03:55 14.6 °C 13.8 °C 1019.9 hPa Calm     95 % 0.0 mm 0 W/m2
04:00 14.6 °C 13.6 °C 1019.5 hPa Calm     94 % 0.0 mm 0 W/m2
04:05 14.4 °C 13.3 °C 1019.5 hPa Calm     93 % 0.0 mm 0 W/m2
04:10 14.3 °C 13.3 °C 1019.5 hPa Calm     94 % 0.0 mm 0 W/m2
04:15 14.2 °C 13.3 °C 1019.5 hPa Calm     94 % 0.0 mm 0 W/m2
04:20 14.0 °C 13.0 °C 1019.5 hPa Calm     94 % 0.0 mm 0 W/m2
04:25 13.9 °C 13.1 °C 1019.2 hPa Calm     95 % 0.0 mm 0 W/m2
04:30 14.1 °C 13.3 °C 1019.2 hPa Calm   1.6 km/h 95 % 0.0 mm 0 W/m2
04:35 14.2 °C 13.4 °C 1019.2 hPa Calm   1.6 km/h 95 % 0.0 mm 0 W/m2
04:40 14.3 °C 13.5 °C 1019.2 hPa Calm   1.6 km/h 95 % 0.0 mm 0 W/m2
04:45 14.3 °C 13.3 °C 1018.8 hPa Calm   1.6 km/h 94 % 0.0 mm 0 W/m2
04:50 14.3 °C 13.3 °C 1018.8 hPa Calm   1.6 km/h 94 % 0.0 mm 0 W/m2
04:55 14.2 °C 13.4 °C 1018.8 hPa Calm     95 % 0.0 mm 0 W/m2
05:00 14.2 °C 13.2 °C 1018.8 hPa Calm     94 % 0.0 mm 0 W/m2
05:05 14.0 °C 13.0 °C 1018.8 hPa Calm     94 % 0.0 mm 0 W/m2
05:10 13.8 °C 12.8 °C 1018.8 hPa Calm   1.6 km/h 94 % 0.0 mm 0 W/m2
05:15 13.7 °C 12.9 °C 1018.8 hPa Calm   1.6 km/h 95 % 0.0 mm 0 W/m2
05:20 13.5 °C 12.7 °C 1018.8 hPa Calm     95 % 0.0 mm 0 W/m2
05:25 13.6 °C 12.8 °C 1018.8 hPa Calm     95 % 0.0 mm 0 W/m2
05:30 13.6 °C 12.8 °C 1018.8 hPa Calm     95 % 0.0 mm 0 W/m2
05:35 13.5 °C 12.7 °C 1018.5 hPa Calm     95 % 0.0 mm 0 W/m2
05:40 13.4 °C 12.7 °C 1018.5 hPa Calm     95 % 0.0 mm 0 W/m2
05:45 13.5 °C 12.9 °C 1018.5 hPa Calm     96 % 0.0 mm 0 W/m2
05:50 13.5 °C 12.9 °C 1018.5 hPa Calm   1.6 km/h 96 % 0.0 mm 0 W/m2
05:55 13.4 °C 12.8 °C 1018.5 hPa Calm   1.6 km/h 96 % 0.0 mm 0 W/m2
06:00 13.5 °C 12.9 °C 1018.5 hPa Calm   1.6 km/h 96 % 0.0 mm 0 W/m2
06:05 13.6 °C 12.9 °C 1018.5 hPa Calm     96 % 0.0 mm 0 W/m2
06:10 13.7 °C 13.1 °C 1018.5 hPa Calm     96 % 0.0 mm 0 W/m2
06:15 13.7 °C 13.0 °C 1018.5 hPa Calm     96 % 0.0 mm 0 W/m2
06:20 13.6 °C 13.0 °C 1018.5 hPa Calm     96 % 0.0 mm 0 W/m2
06:25 13.6 °C 13.0 °C 1018.2 hPa Calm     96 % 0.0 mm 0 W/m2
06:30 13.7 °C 13.1 °C 1018.2 hPa Calm     96 % 0.0 mm 0 W/m2
06:35 13.7 °C 13.1 °C 1018.2 hPa Calm     96 % 0.0 mm 5 W/m2
06:40 13.7 °C 13.1 °C 1018.2 hPa Calm     96 % 0.0 mm 11 W/m2
06:45 13.9 °C 13.4 °C 1017.8 hPa Calm     97 % 0.0 mm 14 W/m2
06:50 13.9 °C 13.3 °C 1017.8 hPa Calm     96 % 0.0 mm 19 W/m2
06:55 14.1 °C 13.4 °C 1017.8 hPa Calm     96 % 0.0 mm 21 W/m2
07:00 14.2 °C 13.7 °C 1017.8 hPa Calm   1.6 km/h 97 % 0.0 mm 25 W/m2
07:05 14.3 °C 13.6 °C 1017.8 hPa Calm   1.6 km/h 96 % 0.0 mm 28 W/m2
07:10 14.3 °C 13.6 °C 1017.8 hPa Calm     96 % 0.0 mm 33 W/m2
07:15 14.4 °C 13.8 °C 1017.8 hPa Calm     96 % 0.0 mm 40 W/m2
07:20 14.8 °C 14.3 °C 1017.8 hPa Calm   1.6 km/h 97 % 0.0 mm 51 W/m2
07:25 14.8 °C 14.1 °C 1017.8 hPa Calm   1.6 km/h 96 % 0.0 mm 53 W/m2
07:30 14.8 °C 14.1 °C 1017.8 hPa Calm   4.8 km/h 96 % 0.0 mm 60 W/m2
07:35 15.1 °C 14.4 °C 1017.8 hPa Calm   4.8 km/h 96 % 0.0 mm 74 W/m2
07:40 15.3 °C 14.6 °C 1017.5 hPa Calm     96 % 0.0 mm 83 W/m2
07:45 15.6 °C 14.9 °C 1017.5 hPa Calm     96 % 0.0 mm 93 W/m2
07:50 15.8 °C 15.2 °C 1017.5 hPa Calm   1.6 km/h 96 % 0.0 mm 104 W/m2
08:00 16.8 °C 16.1 °C 1017.5 hPa WNW 3.2 km/h 6.4 km/h 96 % 0.0 mm 128 W/m2
08:05 17.1 °C 16.3 °C 1017.5 hPa NW 4.8 km/h 6.4 km/h 95 % 0.0 mm 118 W/m2
08:10 17.2 °C 16.2 °C 1017.5 hPa Calm   6.4 km/h 94 % 0.0 mm 104 W/m2
08:15 17.2 °C 16.2 °C 1017.5 hPa NW 1.6 km/h 6.4 km/h 94 % 0.0 mm 98 W/m2
08:20 17.1 °C 16.0 °C 1017.2 hPa Calm   3.2 km/h 93 % 0.0 mm 84 W/m2
08:25 16.9 °C 15.8 °C 1017.5 hPa Calm   1.6 km/h 93 % 0.0 mm 97 W/m2
08:30 17.0 °C 15.7 °C 1017.5 hPa Calm   1.6 km/h 92 % 0.0 mm 109 W/m2
08:40 17.3 °C 16.0 °C 1017.5 hPa WNW 4.8 km/h 6.4 km/h 92 % 0.0 mm 148 W/m2
08:45 17.4 °C 15.7 °C 1017.5 hPa West 3.2 km/h 6.4 km/h 90 % 0.0 mm 195 W/m2
08:50 17.7 °C 16.0 °C 1017.5 hPa Calm   6.4 km/h 90 % 0.0 mm 134 W/m2
08:55 17.7 °C 16.0 °C 1017.5 hPa Calm   4.8 km/h 90 % 0.0 mm 142 W/m2
09:00 17.8 °C 16.2 °C 1017.5 hPa Calm   4.8 km/h 90 % 0.0 mm 211 W/m2
09:05 18.0 °C 16.3 °C 1017.2 hPa West 1.6 km/h 3.2 km/h 90 % 0.0 mm 255 W/m2
09:10 18.4 °C 16.6 °C 1017.2 hPa Calm   4.8 km/h 89 % 0.0 mm 213 W/m2
09:15 18.8 °C 17.1 °C 1017.2 hPa Calm   6.4 km/h 90 % 0.0 mm 369 W/m2
09:20 19.1 °C 16.9 °C 1017.2 hPa NNW 4.8 km/h 6.4 km/h 87 % 0.0 mm 264 W/m2
09:25 19.4 °C 16.7 °C 1016.8 hPa NW 6.4 km/h 8.0 km/h 84 % 0.0 mm 540 W/m2
09:30 19.9 °C 16.8 °C 1016.8 hPa NNE 3.2 km/h 8.0 km/h 82 % 0.0 mm 469 W/m2
09:35 20.4 °C 17.4 °C 1016.8 hPa Calm   8.0 km/h 83 % 0.0 mm 480 W/m2
09:40 20.5 °C 17.5 °C 1016.8 hPa WNW 1.6 km/h 8.0 km/h 83 % 0.0 mm 452 W/m2
09:45 20.6 °C 17.2 °C 1016.8 hPa WNW 1.6 km/h 8.0 km/h 81 % 0.0 mm 464 W/m2
09:50 20.7 °C 17.5 °C 1016.8 hPa WNW 4.8 km/h 8.0 km/h 82 % 0.0 mm 526 W/m2
09:55 20.7 °C 17.1 °C 1016.8 hPa Calm   9.7 km/h 80 % 0.0 mm 387 W/m2
10:00 20.6 °C 17.0 °C 1016.8 hPa WNW 4.8 km/h 9.7 km/h 80 % 0.0 mm 501 W/m2
10:05 20.8 °C 17.4 °C 1016.5 hPa North 4.8 km/h 9.7 km/h 81 % 0.0 mm 566 W/m2
10:10 21.1 °C 17.7 °C 1016.5 hPa North 4.8 km/h 6.4 km/h 81 % 0.0 mm 295 W/m2
10:20 21.1 °C 17.7 °C 1016.5 hPa WNW 4.8 km/h 9.7 km/h 81 % 0.0 mm 323 W/m2
10:25 21.1 °C 17.7 °C 1016.5 hPa NW 3.2 km/h 9.7 km/h 81 % 0.0 mm 345 W/m2
10:30 21.1 °C 17.7 °C 1016.5 hPa WNW 6.4 km/h 9.7 km/h 81 % 0.0 mm 323 W/m2
10:35 20.8 °C 17.5 °C 1016.5 hPa Calm   9.7 km/h 81 % 0.0 mm 236 W/m2
10:40 20.6 °C 17.6 °C 1016.1 hPa Calm   9.7 km/h 83 % 0.0 mm 292 W/m2
10:45 20.8 °C 17.8 °C 1016.1 hPa WNW 6.4 km/h 9.7 km/h 83 % 0.0 mm 294 W/m2
10:50 20.7 °C 17.3 °C 1016.1 hPa NW 6.4 km/h 12.9 km/h 81 % 0.0 mm 241 W/m2
10:55 20.6 °C 17.2 °C 1016.1 hPa WNW 6.4 km/h 16.1 km/h 81 % 0.0 mm 213 W/m2
11:00 20.4 °C 16.6 °C 1016.1 hPa Calm   16.1 km/h 79 % 0.0 mm 162 W/m2
11:05 20.2 °C 16.9 °C 1016.1 hPa NW 3.2 km/h 11.3 km/h 81 % 0.0 mm 139 W/m2
11:10 19.9 °C 16.6 °C 1016.1 hPa WNW 4.8 km/h 12.9 km/h 81 % 0.0 mm 141 W/m2
11:15 19.9 °C 16.7 °C 1015.8 hPa North 6.4 km/h 12.9 km/h 82 % 0.0 mm 199 W/m2
11:20 19.9 °C 16.4 °C 1015.8 hPa NW 4.8 km/h 12.9 km/h 80 % 0.0 mm 246 W/m2
11:25 20.1 °C 16.4 °C 1016.1 hPa West 6.4 km/h 16.1 km/h 79 % 0.0 mm 220 W/m2
11:30 20.1 °C 16.4 °C 1016.1 hPa WNW 4.8 km/h 16.1 km/h 79 % 0.0 mm 216 W/m2
11:35 20.1 °C 16.2 °C 1016.1 hPa WNW 4.8 km/h 11.3 km/h 78 % 0.0 mm 265 W/m2
11:40 20.3 °C 16.6 °C 1016.1 hPa NW 6.4 km/h 12.9 km/h 79 % 0.0 mm 313 W/m2
11:50 20.0 °C 15.4 °C 1016.1 hPa WNW 6.4 km/h 16.1 km/h 75 % 0.0 mm 204 W/m2
12:00 19.9 °C 16.1 °C 1016.1 hPa West 16.1 km/h 20.9 km/h 79 % 0.0 mm 202 W/m2
12:05 19.6 °C 16.1 °C 1016.1 hPa NW 11.3 km/h 20.9 km/h 80 % 0.0 mm 111 W/m2
12:10 19.1 °C 15.6 °C 1016.5 hPa WNW 4.8 km/h 19.3 km/h 80 % 0.0 mm 200 W/m2
12:15 19.1 °C 15.5 °C 1016.1 hPa WNW 12.9 km/h 19.3 km/h 80 % 0.0 mm 202 W/m2
12:20 18.9 °C 15.4 °C 1016.5 hPa WNW 4.8 km/h 22.5 km/h 80 % 0.0 mm 171 W/m2
12:25 18.8 °C 15.3 °C 1016.8 hPa WNW 4.8 km/h 24.1 km/h 80 % 0.0 mm 79 W/m2
12:30 18.4 °C 15.1 °C 1016.8 hPa WNW 6.4 km/h 24.1 km/h 81 % 0.0 mm 84 W/m2
12:35 18.2 °C 15.0 °C 1016.8 hPa WNW 16.1 km/h 27.4 km/h 82 % 0.0 mm 76 W/m2
12:40 17.8 °C 14.9 °C 1016.8 hPa WNW 9.7 km/h 27.4 km/h 83 % 0.0 mm 84 W/m2
12:45 17.6 °C 15.1 °C 1016.8 hPa West 8.0 km/h 24.1 km/h 85 % 0.0 mm 56 W/m2
12:50 17.4 °C 14.8 °C 1016.8 hPa NW 4.8 km/h 22.5 km/h 85 % 0.0 mm 51 W/m2
12:55 17.3 °C 14.9 °C 1016.8 hPa North 9.7 km/h 22.5 km/h 86 % 0.0 mm 51 W/m2
13:00 17.2 °C 15.0 °C 1016.8 hPa NNW 11.3 km/h 17.7 km/h 87 % 0.0 mm 46 W/m2
13:05 17.1 °C 15.1 °C 1016.8 hPa WNW 4.8 km/h 16.1 km/h 88 % 0.0 mm 47 W/m2
13:10 16.9 °C 14.9 °C 1016.8 hPa NNW 9.7 km/h 16.1 km/h 88 % 0.0 mm 77 W/m2
13:15 16.9 °C 15.1 °C 1016.5 hPa NW 12.9 km/h 20.9 km/h 89 % 0.0 mm 114 W/m2
13:20 16.8 °C 15.2 °C 1016.5 hPa NNE 9.7 km/h 20.9 km/h 90 % 0.0 mm 83 W/m2
13:25 16.7 °C 15.2 °C 1016.8 hPa WNW 6.4 km/h 16.1 km/h 91 % 0.3 mm 125 W/m2
13:30 16.6 °C 15.3 °C 1016.8 hPa NW 4.8 km/h 17.7 km/h 92 % 0.3 mm 118 W/m2
13:35 16.6 °C 15.3 °C 1016.8 hPa NW 6.4 km/h 17.7 km/h 92 % 0.3 mm 97 W/m2
13:40 16.4 °C 15.3 °C 1016.8 hPa WNW 4.8 km/h 16.1 km/h 93 % 0.5 mm 88 W/m2
13:45 16.5 °C 15.4 °C 1016.5 hPa WNW 4.8 km/h 14.5 km/h 93 % 0.5 mm 144 W/m2
13:50 16.5 °C 15.5 °C 1016.5 hPa NNW 3.2 km/h 14.5 km/h 94 % 0.5 mm 98 W/m2
13:55 16.6 °C 15.6 °C 1016.5 hPa NW 3.2 km/h 11.3 km/h 94 % 0.5 mm 88 W/m2
14:00 16.6 °C 15.6 °C 1016.1 hPa NW 4.8 km/h 11.3 km/h 94 % 0.8 mm 67 W/m2
14:05 16.4 °C 15.6 °C 1016.5 hPa NNW 3.2 km/h 11.3 km/h 95 % 1.0 mm 60 W/m2
14:10 16.3 °C 15.5 °C 1016.5 hPa Calm   9.7 km/h 95 % 1.5 mm 84 W/m2
14:15 16.3 °C 15.5 °C 1016.5 hPa Calm   8.0 km/h 95 % 1.8 mm 120 W/m2
14:20 16.3 °C 15.5 °C 1016.5 hPa NW 1.6 km/h 9.7 km/h 95 % 1.8 mm 113 W/m2
14:25 16.3 °C 15.7 °C 1016.1 hPa NW 1.6 km/h 11.3 km/h 96 % 1.8 mm 181 W/m2
14:30 16.3 °C 15.7 °C 1016.1 hPa Calm   11.3 km/h 96 % 2.0 mm 146 W/m2
14:35 16.6 °C 15.9 °C 1015.8 hPa NW 4.8 km/h 9.7 km/h 96 % 2.0 mm 172 W/m2
14:40 16.4 °C 15.7 °C 1016.1 hPa NNW 3.2 km/h 6.4 km/h 96 % 1.8 mm 116 W/m2
14:45 16.4 °C 15.8 °C 1015.8 hPa Calm   6.4 km/h 96 % 1.8 mm 137 W/m2
14:50 16.4 °C 15.8 °C 1015.8 hPa Calm   4.8 km/h 96 % 1.8 mm 95 W/m2
14:55 16.6 °C 15.9 °C 1015.8 hPa Calm   4.8 km/h 96 % 1.5 mm 81 W/m2
15:00 16.5 °C 15.9 °C 1015.8 hPa Calm   3.2 km/h 96 % 1.5 mm 60 W/m2
15:05 16.5 °C 15.9 °C 1015.8 hPa Calm   3.2 km/h 96 % 1.5 mm 62 W/m2
15:10 16.4 °C 15.8 °C 1015.8 hPa Calm     96 % 1.0 mm 90 W/m2
15:15 16.6 °C 15.9 °C 1015.8 hPa Calm   1.6 km/h 96 % 0.5 mm 93 W/m2
15:20 16.4 °C 15.7 °C 1015.8 hPa Calm   1.6 km/h 96 % 0.8 mm 111 W/m2
15:25 16.4 °C 15.8 °C 1015.8 hPa NNW 1.6 km/h 3.2 km/h 96 % 0.5 mm 109 W/m2
15:30 16.4 °C 15.8 °C 1015.8 hPa NNW 3.2 km/h 6.4 km/h 96 % 0.5 mm 100 W/m2
15:40 16.4 °C 15.8 °C 1015.8 hPa NNW 1.6 km/h 4.8 km/h 96 % 0.5 mm 111 W/m2
15:45 16.3 °C 15.7 °C 1015.8 hPa NNW 1.6 km/h 4.8 km/h 96 % 0.5 mm 107 W/m2
15:55 16.4 °C 15.8 °C 1015.8 hPa West 3.2 km/h 8.0 km/h 96 % 0.5 mm 104 W/m2
16:00 16.3 °C 15.6 °C 1015.8 hPa West 3.2 km/h 8.0 km/h 96 % 0.5 mm 116 W/m2
16:05 16.3 °C 15.6 °C 1015.8 hPa Calm   6.4 km/h 96 % 0.5 mm 141 W/m2
16:10 16.3 °C 15.6 °C 1015.8 hPa Calm   6.4 km/h 96 % 0.5 mm 135 W/m2
16:15 16.4 °C 15.8 °C 1015.5 hPa West 1.6 km/h 4.8 km/h 96 % 0.5 mm 149 W/m2
16:20 16.4 °C 15.8 °C 1015.5 hPa West 6.4 km/h 6.4 km/h 96 % 0.5 mm 165 W/m2
16:30 16.6 °C 16.0 °C 1015.8 hPa West 3.2 km/h 8.0 km/h 96 % 0.5 mm 165 W/m2
16:35 16.6 °C 16.0 °C 1015.5 hPa WSW 8.0 km/h 8.0 km/h 96 % 0.5 mm 179 W/m2
16:40 16.6 °C 15.9 °C 1015.5 hPa WSW 4.8 km/h 8.0 km/h 96 % 0.5 mm 135 W/m2
16:45 16.3 °C 15.7 °C 1015.5 hPa WSW 3.2 km/h 11.3 km/h 96 % 0.5 mm 141 W/m2
16:50 16.4 °C 15.7 °C 1015.5 hPa WSW 1.6 km/h 12.9 km/h 96 % 0.5 mm 139 W/m2
16:55 16.3 °C 15.6 °C 1015.5 hPa West 6.4 km/h 12.9 km/h 96 % 0.5 mm 118 W/m2
17:00 16.3 °C 15.7 °C 1015.5 hPa WNW 3.2 km/h 14.5 km/h 96 % 0.5 mm 81 W/m2
17:05 16.2 °C 15.6 °C 1015.5 hPa WSW 6.4 km/h 14.5 km/h 96 % 0.5 mm 90 W/m2
17:10 16.2 °C 15.5 °C 1015.5 hPa West 8.0 km/h 12.9 km/h 96 % 0.5 mm 77 W/m2
17:15 16.0 °C 15.4 °C 1015.5 hPa West 6.4 km/h 12.9 km/h 96 % 0.5 mm 70 W/m2
17:20 15.9 °C 15.3 °C 1015.5 hPa West 3.2 km/h 12.9 km/h 96 % 0.5 mm 178 W/m2
17:25 16.1 °C 15.6 °C 1015.5 hPa WNW 9.7 km/h 12.9 km/h 97 % 0.5 mm 190 W/m2
17:30 16.1 °C 15.6 °C 1015.5 hPa West 8.0 km/h 12.9 km/h 97 % 0.5 mm 179 W/m2
17:40 15.8 °C 15.2 °C 1015.5 hPa WSW 3.2 km/h 11.3 km/h 96 % 0.3 mm 160 W/m2
17:45 15.7 °C 15.1 °C 1015.5 hPa WSW 6.4 km/h 12.9 km/h 96 % 0.5 mm 125 W/m2
17:50 15.6 °C 14.9 °C 1015.5 hPa WNW 8.0 km/h 12.9 km/h 96 % 0.5 mm 121 W/m2
17:55 15.6 °C 15.0 °C 1015.5 hPa WNW 3.2 km/h 11.3 km/h 96 % 0.5 mm 135 W/m2
18:00 15.5 °C 14.9 °C 1015.1 hPa West 8.0 km/h 11.3 km/h 96 % 0.5 mm 171 W/m2
18:05 15.6 °C 15.0 °C 1015.5 hPa WNW 9.7 km/h 12.9 km/h 96 % 0.5 mm 121 W/m2
18:10 15.7 °C 15.1 °C 1015.5 hPa WNW 3.2 km/h 12.9 km/h 96 % 0.5 mm 105 W/m2
18:15 15.7 °C 15.0 °C 1015.5 hPa WNW 3.2 km/h 12.9 km/h 96 % 0.3 mm 84 W/m2
18:20 15.7 °C 15.0 °C 1015.5 hPa WNW 8.0 km/h 12.9 km/h 96 % 0.3 mm 63 W/m2
18:25 15.6 °C 14.9 °C 1015.5 hPa WNW 3.2 km/h 11.3 km/h 96 % 0.3 mm 53 W/m2
18:30 15.4 °C 14.8 °C 1015.5 hPa WSW 4.8 km/h 12.9 km/h 96 % 0.3 mm 51 W/m2
18:35 15.4 °C 14.8 °C 1015.5 hPa West 1.6 km/h 12.9 km/h 96 % 0.3 mm 86 W/m2
18:40 15.4 °C 14.8 °C 1015.5 hPa West 8.0 km/h 14.5 km/h 96 % 0.5 mm 105 W/m2
18:45 15.4 °C 14.8 °C 1015.5 hPa WSW 4.8 km/h 14.5 km/h 96 % 0.3 mm 84 W/m2
18:50 15.3 °C 14.7 °C 1015.5 hPa West 8.0 km/h 12.9 km/h 96 % 0.3 mm 84 W/m2
18:55 15.3 °C 14.7 °C 1015.5 hPa WSW 4.8 km/h 17.7 km/h 96 % 0.3 mm 109 W/m2
19:00 15.3 °C 14.7 °C 1015.5 hPa West 4.8 km/h 17.7 km/h 96 % 0.3 mm 93 W/m2
19:05 15.3 °C 14.9 °C 1015.5 hPa WSW 8.0 km/h 11.3 km/h 97 % 0.5 mm 69 W/m2
19:10 15.4 °C 15.0 °C 1015.5 hPa West 6.4 km/h 11.3 km/h 97 % 0.5 mm 67 W/m2
19:15 15.4 °C 14.8 °C 1015.5 hPa WSW 8.0 km/h 11.3 km/h 96 % 0.5 mm 56 W/m2
19:20 15.3 °C 14.6 °C 1015.5 hPa WSW 6.4 km/h 12.9 km/h 96 % 0.5 mm 60 W/m2
19:25 15.2 °C 14.7 °C 1015.5 hPa West 4.8 km/h 12.9 km/h 97 % 0.5 mm 51 W/m2
19:30 15.2 °C 14.7 °C 1015.1 hPa WSW 1.6 km/h 11.3 km/h 97 % 0.5 mm 40 W/m2
19:35 15.1 °C 14.5 °C 1015.1 hPa Calm   11.3 km/h 96 % 0.5 mm 26 W/m2
19:40 15.1 °C 14.6 °C 1015.1 hPa WSW 8.0 km/h 12.9 km/h 97 % 0.3 mm 54 W/m2
19:45 15.2 °C 14.7 °C 1015.1 hPa Calm   12.9 km/h 97 % 0.3 mm 63 W/m2
19:50 15.2 °C 14.7 °C 1015.1 hPa Calm   11.3 km/h 97 % 0.3 mm 42 W/m2
19:55 15.3 °C 14.8 °C 1015.1 hPa WSW 4.8 km/h 11.3 km/h 97 % 0.3 mm 40 W/m2
20:00 15.2 °C 14.7 °C 1015.1 hPa SW 6.4 km/h 11.3 km/h 97 % 0.3 mm 25 W/m2
20:05 15.2 °C 14.7 °C 1015.1 hPa WSW 4.8 km/h 12.9 km/h 97 % 0.3 mm 23 W/m2
20:10 15.1 °C 14.6 °C 1015.1 hPa WSW 4.8 km/h 14.5 km/h 97 % 0.3 mm 12 W/m2
20:15 15.1 °C 14.6 °C 1015.1 hPa West 6.4 km/h 14.5 km/h 97 % 0.3 mm 18 W/m2
20:20 15.1 °C 14.6 °C 1015.1 hPa West 8.0 km/h 12.9 km/h 97 % 0.3 mm 19 W/m2
20:25 15.1 °C 14.6 °C 1015.1 hPa West 3.2 km/h 12.9 km/h 97 % 0.3 mm 16 W/m2
20:30 15.1 °C 14.6 °C 1015.1 hPa SW 3.2 km/h 9.7 km/h 97 % 0.3 mm 11 W/m2
20:35 15.1 °C 14.6 °C 1015.1 hPa WSW 9.7 km/h 17.7 km/h 97 % 0.3 mm 5 W/m2
20:40 15.1 °C 14.6 °C 1015.1 hPa West 3.2 km/h 17.7 km/h 97 % 0.3 mm 7 W/m2
20:45 15.1 °C 14.6 °C 1015.1 hPa WSW 1.6 km/h 14.5 km/h 97 % 0.3 mm 7 W/m2
20:50 15.1 °C 14.6 °C 1015.1 hPa WSW 8.0 km/h 17.7 km/h 97 % 0.3 mm 7 W/m2
20:55 15.1 °C 14.6 °C 1015.1 hPa WSW 9.7 km/h 17.7 km/h 97 % 0.3 mm 7 W/m2
21:00 15.1 °C 14.6 °C 1014.8 hPa WSW 9.7 km/h 16.1 km/h 97 % 0.3 mm 12 W/m2
21:05 15.1 °C 14.6 °C 1015.1 hPa WSW 8.0 km/h 12.9 km/h 97 % 0.0 mm 5 W/m2
21:10 15.1 °C 14.6 °C 1015.1 hPa Calm   14.5 km/h 97 % 0.0 mm 5 W/m2
21:15 15.1 °C 14.6 °C 1015.1 hPa WSW 3.2 km/h 14.5 km/h 97 % 0.0 mm 0 W/m2
21:20 15.1 °C 14.6 °C 1015.1 hPa WSW 1.6 km/h 14.5 km/h 97 % 0.0 mm 0 W/m2
21:25 15.0 °C 14.5 °C 1014.8 hPa West 9.7 km/h 11.3 km/h 97 % 0.0 mm 0 W/m2
21:30 15.1 °C 14.6 °C 1015.1 hPa SW 8.0 km/h 12.9 km/h 97 % 0.0 mm 0 W/m2
21:35 15.1 °C 14.6 °C 1014.8 hPa WSW 4.8 km/h 12.9 km/h 97 % 0.0 mm 0 W/m2
21:40 15.1 °C 14.6 °C 1014.8 hPa WSW 4.8 km/h 11.3 km/h 97 % 0.0 mm 0 W/m2
21:45 15.1 °C 14.6 °C 1014.8 hPa SW 6.4 km/h 14.5 km/h 97 % 0.0 mm 0 W/m2
21:50 15.1 °C 14.6 °C 1014.8 hPa WSW 6.4 km/h 14.5 km/h 97 % 0.0 mm 0 W/m2
21:55 15.1 °C 14.6 °C 1014.8 hPa SW 3.2 km/h 9.7 km/h 97 % 0.3 mm 0 W/m2
22:00 15.1 °C 14.6 °C 1014.8 hPa Calm   12.9 km/h 97 % 0.3 mm 0 W/m2
22:05 15.1 °C 14.6 °C 1015.1 hPa WSW 9.7 km/h 12.9 km/h 97 % 0.3 mm 0 W/m2
22:10 15.1 °C 14.6 °C 1015.1 hPa WSW 4.8 km/h 14.5 km/h 97 % 0.3 mm 0 W/m2
22:15 15.1 °C 14.6 °C 1015.1 hPa SW 11.3 km/h 14.5 km/h 97 % 0.3 mm 0 W/m2
22:20 15.1 °C 14.6 °C 1015.1 hPa WSW 8.0 km/h 11.3 km/h 97 % 0.3 mm 0 W/m2
22:25 15.1 °C 14.6 °C 1015.1 hPa SSW 3.2 km/h 11.3 km/h 97 % 0.3 mm 0 W/m2
22:30 15.1 °C 14.6 °C 1015.1 hPa Calm   12.9 km/h 97 % 0.3 mm 0 W/m2
22:35 15.1 °C 14.6 °C 1015.1 hPa WSW 8.0 km/h 14.5 km/h 97 % 0.3 mm 0 W/m2
22:40 15.1 °C 14.6 °C 1015.1 hPa SW 4.8 km/h 14.5 km/h 97 % 0.3 mm 0 W/m2
22:45 15.0 °C 14.5 °C 1015.1 hPa SW 8.0 km/h 12.9 km/h 97 % 0.3 mm 0 W/m2
22:50 15.1 °C 14.6 °C 1015.1 hPa WSW 4.8 km/h 16.1 km/h 97 % 0.3 mm 0 W/m2
22:55 15.1 °C 14.7 °C 1015.1 hPa SW 8.0 km/h 16.1 km/h 98 % 0.0 mm 0 W/m2
23:00 15.1 °C 14.7 °C 1015.1 hPa WSW 1.6 km/h 16.1 km/h 98 % 0.0 mm 0 W/m2
23:05 15.1 °C 14.7 °C 1015.1 hPa SW 4.8 km/h 14.5 km/h 98 % 0.0 mm 0 W/m2
23:10 15.1 °C 14.7 °C 1015.1 hPa WSW 8.0 km/h 12.9 km/h 98 % 0.3 mm 0 W/m2
23:15 15.1 °C 14.7 °C 1014.8 hPa SW 4.8 km/h 12.9 km/h 98 % 0.3 mm 0 W/m2
23:20 15.1 °C 14.7 °C 1014.8 hPa SW 1.6 km/h 12.9 km/h 98 % 0.5 mm 0 W/m2
23:25 15.1 °C 14.7 °C 1015.1 hPa SW 4.8 km/h 12.9 km/h 98 % 0.5 mm 0 W/m2
23:30 15.1 °C 14.7 °C 1014.8 hPa SW 6.4 km/h 12.9 km/h 98 % 0.5 mm 0 W/m2
23:35 15.1 °C 14.7 °C 1014.8 hPa SSW 6.4 km/h 12.9 km/h 98 % 0.5 mm 0 W/m2
23:40 15.1 °C 14.7 °C 1015.1 hPa SSW 3.2 km/h 12.9 km/h 98 % 0.5 mm 0 W/m2
23:45 15.1 °C 14.7 °C 1014.8 hPa SSW 9.7 km/h 12.9 km/h 98 % 0.5 mm 0 W/m2
23:50 15.1 °C 14.7 °C 1014.8 hPa SSW 8.0 km/h 16.1 km/h 98 % 0.5 mm 0 W/m2
23:55 15.1 °C 14.7 °C 1014.8 hPa SW 6.4 km/h 16.1 km/h 98 % 0.5 mm 0 W/m2
Avec l'autorisation de Weather Underground - 1.75 mb